Time,TemperatureF,DewpointF,PressureIn,WindDirection,WindDirectionDegrees,WindSpeedMPH,WindSpeedGustMPH,Humidity,HourlyPrecipIn,Conditions,Clouds,dailyrainin,SoftwareType,DateUTC
2013-01-30 00:02:00,-999.0,-99.9,-100.00,NNW,339,11.0,15.0,-999,-99.99,,,-99.99,,2013-01-30 06:02:00,
2013-01-30 00:12:00,33.0,-99.9,29.54,NNW,339,11.0,15.0,-999,-99.99,,,-99.99,,2013-01-30 06:12:00,
2013-01-30 00:22:00,33.0,-99.9,29.55,North,-999,-999.0,-999.0,-999,-99.99,,,-99.99,,2013-01-30 06:22:00,
2013-01-30 00:32:00,33.0,-99.9,29.56,NNW,337,9.0,11.0,-999,-99.99,,,-99.99,,2013-01-30 06:32:00,
2013-01-30 00:42:00,34.0,-99.9,29.57,North,-999,-999.0,-999.0,-999,-99.99,,,-99.99,,2013-01-30 06:42:00,
2013-01-30 00:52:00,33.0,-99.9,29.56,North,-999,-999.0,-999.0,-999,-99.99,,,-99.99,,2013-01-30 06:52:00,
2013-01-30 01:02:00,34.0,-99.9,29.54,North,-999,-999.0,-999.0,-999,-99.99,,,-99.99,,2013-01-30 07:02:00,
2013-01-30 01:12:00,33.0,-99.9,29.54,North,-999,-999.0,-999.0,-999,-99.99,,,-99.99,,2013-01-30 07:12:00,
2013-01-30 01:22:00,33.0,-99.9,29.54,North,-999,-999.0,-999.0,-999,-99.99,,,-99.99,,2013-01-30 07:22:00,
2013-01-30 01:32:00,-999.0,-99.9,-100.00,NNW,336,12.0,13.0,-999,-99.99,,,-99.99,,2013-01-30 07:32:00,
2013-01-30 01:42:00,33.0,-99.9,29.52,NNW,336,12.0,13.0,-999,-99.99,,,-99.99,,2013-01-30 07:42:00,
2013-01-30 01:52:00,33.0,-99.9,29.51,North,-999,-999.0,-999.0,-999,-99.99,,,-99.99,,2013-01-30 07:52:00,
2013-01-30 02:02:00,33.0,-99.9,29.51,NNW,340,15.0,18.0,-999,-99.99,,,-99.99,,2013-01-30 08:02:00,
2013-01-30 02:22:00,33.0,-99.9,29.53,North,-999,-999.0,-999.0,-999,-99.99,,,-99.99,,2013-01-30 08:22:00,
2013-01-30 02:32:00,33.0,-99.9,29.53,North,-999,-999.0,-999.0,-999,-99.99,,,-99.99,,2013-01-30 08:32:00,
2013-01-30 02:42:00,33.0,-99.9,29.52,North,-999,-999.0,-999.0,-999,-99.99,,,-99.99,,2013-01-30 08:42:00,
2013-01-30 02:52:00,33.0,-99.9,29.50,North,-999,-999.0,-999.0,-999,-99.99,,,-99.99,,2013-01-30 08:52:00,
2013-01-30 03:02:00,-999.0,-99.9,-100.00,NNW,339,14.0,16.0,-999,-99.99,,,-99.99,,2013-01-30 09:02:00,
2013-01-30 03:12:00,32.0,-99.9,29.50,NNW,339,14.0,16.0,-999,-99.99,,,-99.99,,2013-01-30 09:12:00,
2013-01-30 03:22:00,32.0,-99.9,29.48,North,-999,-999.0,-999.0,-999,-99.99,,,-99.99,,2013-01-30 09:22:00,
2013-01-30 03:32:00,-999.0,-99.9,29.47,North,352,12.0,14.0,-999,-99.99,,,-99.99,,2013-01-30 09:32:00,
2013-01-30 04:02:00,-999.0,-99.9,29.49,North,349,10.0,11.0,-999,-99.99,,,-99.99,,2013-01-30 10:02:00,
2013-01-30 04:32:00,32.0,-99.9,29.51,NNW,335,10.0,12.0,-999,-99.99,,,-99.99,,2013-01-30 10:32:00,
2013-01-30 04:42:00,32.0,-99.9,29.52,North,-999,-999.0,-999.0,-999,-99.99,,,-99.99,,2013-01-30 10:42:00,
2013-01-30 05:02:00,-999.0,-99.9,-100.00,North,11,13.0,13.0,-999,-99.99,,,-99.99,,2013-01-30 11:02:00,
2013-01-30 05:11:00,-999.0,-99.9,29.46,North,11,13.0,13.0,-999,-99.99,,,-99.99,,2013-01-30 11:11:00,
2013-01-30 05:33:00,31.0,-99.9,29.50,North,6,19.0,22.0,-999,-99.99,,,-99.99,,2013-01-30 11:33:00,
2013-01-30 06:13:00,-999.0,-99.9,-100.00,North,351,22.0,24.0,-999,-99.99,,,-99.99,,2013-01-30 12:13:00,
2013-01-30 06:22:00,-999.0,-99.9,29.45,North,351,22.0,24.0,-999,-99.99,,,-99.99,,2013-01-30 12:22:00,
2013-01-30 06:33:00,-999.0,-99.9,-100.00,North,353,19.0,23.0,-999,-99.99,,,-99.99,,2013-01-30 12:33:00,
2013-01-30 06:43:00,-999.0,-99.9,29.47,North,353,19.0,23.0,-999,-99.99,,,-99.99,,2013-01-30 12:43:00,
2013-01-30 07:03:00,30.0,-99.9,29.47,North,352,19.0,23.0,-999,-99.99,,,-99.99,,2013-01-30 13:03:00,
2013-01-30 08:03:00,-999.0,-99.9,-100.00,North,356,18.0,26.0,-999,-99.99,,,-99.99,,2013-01-30 14:03:00,
2013-01-30 08:12:00,-999.0,-99.9,29.47,North,356,18.0,26.0,-999,-99.99,,,-99.99,,2013-01-30 14:12:00,
2013-01-30 08:33:00,28.0,-99.9,29.46,North,2,15.0,20.0,-999,-99.99,,,-99.99,,2013-01-30 14:33:00,
2013-01-30 09:34:00,-999.0,-99.9,-100.00,North,352,16.0,21.0,-999,-99.99,,,-99.99,,2013-01-30 15:34:00,
2013-01-30 09:43:00,-999.0,-99.9,29.45,North,352,16.0,21.0,-999,-99.99,,,-99.99,,2013-01-30 15:43:00,
2013-01-30 10:03:00,-999.0,-99.9,-100.00,NNW,348,15.0,19.0,-999,-99.99,,,-99.99,,2013-01-30 16:03:00,
2013-01-30 10:13:00,-999.0,-99.9,29.44,NNW,348,15.0,19.0,-999,-99.99,,,-99.99,,2013-01-30 16:13:00,
2013-01-30 10:33:00,27.0,-99.9,29.42,North,352,17.0,24.0,-999,-99.99,,,-99.99,,2013-01-30 16:33:00,
2013-01-30 11:03:00,27.0,-99.9,29.40,NNW,344,17.0,23.0,-999,-99.99,,,-99.99,,2013-01-30 17:03:00,
2013-01-30 11:34:00,-999.0,-99.9,-100.00,North,355,16.0,21.0,-999,-99.99,,,-99.99,,2013-01-30 17:34:00,
2013-01-30 11:43:00,-999.0,-99.9,29.38,North,355,16.0,21.0,-999,-99.99,,,-99.99,,2013-01-30 17:43:00,
2013-01-30 12:04:00,27.0,-99.9,29.36,NNW,348,14.0,20.0,-999,-99.99,,,-99.99,,2013-01-30 18:04:00,
2013-01-30 12:33:00,-999.0,-99.9,-100.00,NNW,336,18.0,25.0,-999,-99.99,,,-99.99,,2013-01-30 18:33:00,
2013-01-30 12:43:00,-999.0,-99.9,29.34,NNW,336,18.0,25.0,-999,-99.99,,,-99.99,,2013-01-30 18:43:00,
2013-01-30 13:03:00,25.0,-99.9,29.34,NW,326,21.0,27.0,-999,-99.99,,,-99.99,,2013-01-30 19:03:00,
2013-01-30 14:04:00,-999.0,-99.9,-100.00,NNW,327,27.0,35.0,-999,-99.99,,,-99.99,,2013-01-30 20:04:00,
2013-01-30 14:12:00,-999.0,-99.9,29.34,NNW,327,27.0,35.0,-999,-99.99,,,-99.99,,2013-01-30 20:12:00,
2013-01-30 14:33:00,23.0,-99.9,29.35,NNW,328,25.0,31.0,-999,-99.99,,,-99.99,,2013-01-30 20:33:00,
2013-01-30 15:04:00,22.0,-99.9,29.34,NW,317,23.0,26.0,-999,-99.99,,,-99.99,,2013-01-30 21:04:00,
2013-01-30 15:32:00,-999.0,-99.9,-100.00,NW,321,20.0,30.0,-999,-99.99,,,-99.99,,2013-01-30 21:32:00,
2013-01-30 15:43:00,-999.0,-99.9,29.34,NW,321,20.0,30.0,-999,-99.99,,,-99.99,,2013-01-30 21:43:00,
2013-01-30 16:03:00,21.0,-99.9,29.34,NW,309,20.0,29.0,-999,-99.99,,,-99.99,,2013-01-30 22:03:00,
2013-01-30 16:33:00,-999.0,-99.9,-100.00,WNW,303,17.0,27.0,-999,-99.99,,,-99.99,,2013-01-30 22:33:00,
2013-01-30 16:43:00,-999.0,-99.9,29.36,WNW,303,17.0,27.0,-999,-99.99,,,-99.99,,2013-01-30 22:43:00,
2013-01-30 17:03:00,21.0,-99.9,29.38,NW,314,17.0,20.0,-999,-99.99,,,-99.99,,2013-01-30 23:03:00,
2013-01-30 18:02:00,-999.0,-99.9,-100.00,NW,305,19.0,29.0,-999,-99.99,,,-99.99,,2013-01-31 00:02:00,
2013-01-30 18:11:00,-999.0,-99.9,-100.00,NW,305,19.0,29.0,-999,-99.99,,,-99.99,,2013-01-31 00:11:00,
2013-01-30 18:22:00,-999.0,-99.9,29.40,NW,305,19.0,29.0,-999,-99.99,,,-99.99,,2013-01-31 00:22:00,
2013-01-30 18:32:00,18.0,-99.9,29.41,NW,304,22.0,30.0,-999,-99.99,,,-99.99,,2013-01-31 00:32:00,
2013-01-30 19:32:00,-999.0,-99.9,-100.00,WNW,289,18.0,23.0,-999,-99.99,,,-99.99,,2013-01-31 01:32:00,
2013-01-30 19:42:00,-999.0,-99.9,29.41,WNW,289,18.0,23.0,-999,-99.99,,,-99.99,,2013-01-31 01:42:00,
2013-01-30 20:01:00,16.0,-99.9,29.41,WNW,293,18.0,26.0,-999,-99.99,,,-99.99,,2013-01-31 02:01:00,
2013-01-30 21:03:00,-999.0,-99.9,-100.00,WNW,293,15.0,25.0,-999,-99.99,,,-99.99,,2013-01-31 03:03:00,
2013-01-30 21:12:00,-999.0,-99.9,29.43,WNW,293,15.0,25.0,-999,-99.99,,,-99.99,,2013-01-31 03:12:00,
2013-01-30 21:32:00,15.0,-99.9,29.43,WNW,291,15.0,25.0,-999,-99.99,,,-99.99,,2013-01-31 03:32:00,
2013-01-30 22:02:00,15.0,-99.9,29.44,WNW,288,17.0,23.0,-999,-99.99,,,-99.99,,2013-01-31 04:02:00,
2013-01-30 22:32:00,-999.0,-99.9,-100.00,WNW,291,15.0,24.0,-999,-99.99,,,-99.99,,2013-01-31 04:32:00,
2013-01-30 22:42:00,-999.0,-99.9,29.45,WNW,291,15.0,24.0,-999,-99.99,,,-99.99,,2013-01-31 04:42:00,
2013-01-30 23:04:00,15.0,-99.9,29.46,WNW,285,15.0,20.0,-999,-99.99,,,-99.99,,2013-01-31 05:04:00,
2013-01-30 23:42:00,15.0,-99.9,29.47,WNW,288,15.0,20.0,-999,-99.99,,,-99.99,,2013-01-31 05:42:00,
2013-01-30 23:52:00,15.0,-99.9,29.47,WNW,288,15.0,20.0,-999,-99.99,,,-99.99,,2013-01-31 05:52:00,